sensor_id;sensor_type;location;lat;lon;timestamp;temperature;humidity
68924;DHT22;55961;52.156;20.942;2023-04-06T00:02:12;2.20;50.80
68924;DHT22;55961;52.156;20.942;2023-04-06T00:04:38;2.20;50.80
68924;DHT22;55961;52.156;20.942;2023-04-06T00:07:04;2.20;50.80
68924;DHT22;55961;52.156;20.942;2023-04-06T00:09:30;2.20;51.00
68924;DHT22;55961;52.156;20.942;2023-04-06T00:11:56;2.20;51.10
68924;DHT22;55961;52.156;20.942;2023-04-06T00:14:23;2.20;51.10
68924;DHT22;55961;52.156;20.942;2023-04-06T00:16:49;2.20;51.30
68924;DHT22;55961;52.156;20.942;2023-04-06T00:19:15;2.20;51.60
68924;DHT22;55961;52.156;20.942;2023-04-06T00:21:41;2.20;52.00
68924;DHT22;55961;52.156;20.942;2023-04-06T00:24:07;2.20;52.10
68924;DHT22;55961;52.156;20.942;2023-04-06T00:26:33;2.20;52.10
68924;DHT22;55961;52.156;20.942;2023-04-06T00:28:59;2.30;52.50
68924;DHT22;55961;52.156;20.942;2023-04-06T00:31:25;2.20;52.40
68924;DHT22;55961;52.156;20.942;2023-04-06T00:33:51;2.30;52.20
68924;DHT22;55961;52.156;20.942;2023-04-06T00:36:17;2.30;52.10
68924;DHT22;55961;52.156;20.942;2023-04-06T00:38:43;2.30;51.20
68924;DHT22;55961;52.156;20.942;2023-04-06T00:41:09;2.20;51.20
68924;DHT22;55961;52.156;20.942;2023-04-06T00:43:36;2.20;51.30
68924;DHT22;55961;52.156;20.942;2023-04-06T00:46:02;2.20;51.20
68924;DHT22;55961;52.156;20.942;2023-04-06T00:48:28;2.20;51.40
68924;DHT22;55961;52.156;20.942;2023-04-06T00:50:55;2.20;51.60
68924;DHT22;55961;52.156;20.942;2023-04-06T00:53:21;2.20;51.80
68924;DHT22;55961;52.156;20.942;2023-04-06T00:55:47;2.20;51.80
68924;DHT22;55961;52.156;20.942;2023-04-06T00:58:13;2.20;51.70
68924;DHT22;55961;52.156;20.942;2023-04-06T01:00:39;2.20;51.90
68924;DHT22;55961;52.156;20.942;2023-04-06T01:03:05;2.20;52.00
68924;DHT22;55961;52.156;20.942;2023-04-06T01:05:36;2.20;52.40
68924;DHT22;55961;52.156;20.942;2023-04-06T01:08:06;2.20;52.40
68924;DHT22;55961;52.156;20.942;2023-04-06T01:10:33;2.20;52.50
68924;DHT22;55961;52.156;20.942;2023-04-06T01:12:59;2.20;52.40
68924;DHT22;55961;52.156;20.942;2023-04-06T01:15:25;2.20;52.50
68924;DHT22;55961;52.156;20.942;2023-04-06T01:17:52;2.20;52.70
68924;DHT22;55961;52.156;20.942;2023-04-06T01:20:18;2.20;52.50
68924;DHT22;55961;52.156;20.942;2023-04-06T01:22:44;2.20;52.50
68924;DHT22;55961;52.156;20.942;2023-04-06T01:25:10;2.20;52.60
68924;DHT22;55961;52.156;20.942;2023-04-06T01:27:36;2.20;52.60
68924;DHT22;55961;52.156;20.942;2023-04-06T01:30:03;2.20;52.70
68924;DHT22;55961;52.156;20.942;2023-04-06T01:32:29;2.20;52.70
68924;DHT22;55961;52.156;20.942;2023-04-06T01:34:55;2.20;52.60
68924;DHT22;55961;52.156;20.942;2023-04-06T01:37:21;2.20;52.50
68924;DHT22;55961;52.156;20.942;2023-04-06T01:39:47;2.20;52.60
68924;DHT22;55961;52.156;20.942;2023-04-06T01:42:13;2.20;52.60
68924;DHT22;55961;52.156;20.942;2023-04-06T01:44:39;2.20;52.80
68924;DHT22;55961;52.156;20.942;2023-04-06T01:47:05;2.20;52.80
68924;DHT22;55961;52.156;20.942;2023-04-06T01:49:31;2.20;52.70
68924;DHT22;55961;52.156;20.942;2023-04-06T01:51:57;2.20;52.50
68924;DHT22;55961;52.156;20.942;2023-04-06T01:54:23;2.20;52.60
68924;DHT22;55961;52.156;20.942;2023-04-06T01:56:49;2.20;52.50
68924;DHT22;55961;52.156;20.942;2023-04-06T01:59:16;2.20;52.60
68924;DHT22;55961;52.156;20.942;2023-04-06T02:01:43;2.10;52.60
68924;DHT22;55961;52.156;20.942;2023-04-06T02:04:08;2.20;52.80
68924;DHT22;55961;52.156;20.942;2023-04-06T02:06:35;2.10;52.90
68924;DHT22;55961;52.156;20.942;2023-04-06T02:09:01;2.20;53.00
68924;DHT22;55961;52.156;20.942;2023-04-06T02:11:27;2.10;53.00
68924;DHT22;55961;52.156;20.942;2023-04-06T02:13:53;2.20;53.10
68924;DHT22;55961;52.156;20.942;2023-04-06T02:16:19;2.20;53.20
68924;DHT22;55961;52.156;20.942;2023-04-06T02:18:45;2.20;53.20
68924;DHT22;55961;52.156;20.942;2023-04-06T02:21:11;2.20;53.20
68924;DHT22;55961;52.156;20.942;2023-04-06T02:23:37;2.20;53.30
68924;DHT22;55961;52.156;20.942;2023-04-06T02:26:03;2.10;53.40
68924;DHT22;55961;52.156;20.942;2023-04-06T02:28:29;2.20;53.50
68924;DHT22;55961;52.156;20.942;2023-04-06T02:30:55;2.20;53.60
68924;DHT22;55961;52.156;20.942;2023-04-06T02:33:21;2.10;53.50
68924;DHT22;55961;52.156;20.942;2023-04-06T02:35:47;2.20;53.80
68924;DHT22;55961;52.156;20.942;2023-04-06T02:38:13;2.20;53.80
68924;DHT22;55961;52.156;20.942;2023-04-06T02:40:39;2.10;53.90
68924;DHT22;55961;52.156;20.942;2023-04-06T02:43:05;2.10;53.90
68924;DHT22;55961;52.156;20.942;2023-04-06T02:45:31;2.20;54.30
68924;DHT22;55961;52.156;20.942;2023-04-06T02:47:56;2.10;54.20
68924;DHT22;55961;52.156;20.942;2023-04-06T02:50:22;2.10;54.20
68924;DHT22;55961;52.156;20.942;2023-04-06T02:52:48;2.10;54.20
68924;DHT22;55961;52.156;20.942;2023-04-06T02:55:14;2.10;54.50
68924;DHT22;55961;52.156;20.942;2023-04-06T02:57:40;2.10;54.60
68924;DHT22;55961;52.156;20.942;2023-04-06T03:00:07;2.10;54.90
68924;DHT22;55961;52.156;20.942;2023-04-06T03:02:33;2.10;55.00
68924;DHT22;55961;52.156;20.942;2023-04-06T03:04:59;2.10;55.10
68924;DHT22;55961;52.156;20.942;2023-04-06T03:07:25;2.10;55.40
68924;DHT22;55961;52.156;20.942;2023-04-06T03:09:51;2.10;55.30
68924;DHT22;55961;52.156;20.942;2023-04-06T03:12:17;2.00;55.40
68924;DHT22;55961;52.156;20.942;2023-04-06T03:14:43;2.10;55.60
68924;DHT22;55961;52.156;20.942;2023-04-06T03:17:09;2.00;55.80
68924;DHT22;55961;52.156;20.942;2023-04-06T03:19:35;2.00;55.70
68924;DHT22;55961;52.156;20.942;2023-04-06T03:22:01;2.00;56.00
68924;DHT22;55961;52.156;20.942;2023-04-06T03:24:27;2.00;55.80
68924;DHT22;55961;52.156;20.942;2023-04-06T03:26:53;2.00;55.90
68924;DHT22;55961;52.156;20.942;2023-04-06T03:29:19;2.00;55.90
68924;DHT22;55961;52.156;20.942;2023-04-06T03:31:45;1.90;56.20
68924;DHT22;55961;52.156;20.942;2023-04-06T03:34:13;1.90;56.40
68924;DHT22;55961;52.156;20.942;2023-04-06T03:36:38;2.00;56.60
68924;DHT22;55961;52.156;20.942;2023-04-06T03:39:05;1.90;57.00
68924;DHT22;55961;52.156;20.942;2023-04-06T03:41:31;1.90;57.20
68924;DHT22;55961;52.156;20.942;2023-04-06T03:43:57;1.90;57.30
68924;DHT22;55961;52.156;20.942;2023-04-06T03:46:23;1.90;57.40
68924;DHT22;55961;52.156;20.942;2023-04-06T03:48:49;1.90;57.40
68924;DHT22;55961;52.156;20.942;2023-04-06T03:51:15;1.90;57.60
68924;DHT22;55961;52.156;20.942;2023-04-06T03:53:41;1.80;57.70
68924;DHT22;55961;52.156;20.942;2023-04-06T03:56:07;1.80;57.90
68924;DHT22;55961;52.156;20.942;2023-04-06T03:58:34;1.80;57.90
68924;DHT22;55961;52.156;20.942;2023-04-06T04:01:00;1.80;58.00
68924;DHT22;55961;52.156;20.942;2023-04-06T04:03:26;1.80;58.40
68924;DHT22;55961;52.156;20.942;2023-04-06T04:05:53;1.70;58.50
68924;DHT22;55961;52.156;20.942;2023-04-06T04:08:21;1.70;58.70
68924;DHT22;55961;52.156;20.942;2023-04-06T04:10:47;1.70;58.70
68924;DHT22;55961;52.156;20.942;2023-04-06T04:13:13;1.70;58.70
68924;DHT22;55961;52.156;20.942;2023-04-06T04:15:38;1.70;58.80
68924;DHT22;55961;52.156;20.942;2023-04-06T04:18:05;1.60;58.90
68924;DHT22;55961;52.156;20.942;2023-04-06T04:20:30;1.60;58.90
68924;DHT22;55961;52.156;20.942;2023-04-06T04:22:56;1.60;58.80
68924;DHT22;55961;52.156;20.942;2023-04-06T04:25:23;1.60;59.00
68924;DHT22;55961;52.156;20.942;2023-04-06T04:27:49;1.60;59.20
68924;DHT22;55961;52.156;20.942;2023-04-06T04:30:15;1.60;59.40
68924;DHT22;55961;52.156;20.942;2023-04-06T04:32:41;1.60;59.30
68924;DHT22;55961;52.156;20.942;2023-04-06T04:35:07;1.60;59.70
68924;DHT22;55961;52.156;20.942;2023-04-06T04:37:35;1.60;59.80
68924;DHT22;55961;52.156;20.942;2023-04-06T04:40:01;1.60;59.90
68924;DHT22;55961;52.156;20.942;2023-04-06T04:42:27;1.60;59.90
68924;DHT22;55961;52.156;20.942;2023-04-06T04:44:52;1.60;60.40
68924;DHT22;55961;52.156;20.942;2023-04-06T04:47:18;1.60;60.50
68924;DHT22;55961;52.156;20.942;2023-04-06T04:49:44;1.60;60.50
68924;DHT22;55961;52.156;20.942;2023-04-06T04:52:11;1.60;60.60
68924;DHT22;55961;52.156;20.942;2023-04-06T04:54:36;1.60;60.30
68924;DHT22;55961;52.156;20.942;2023-04-06T04:57:03;1.60;60.30
68924;DHT22;55961;52.156;20.942;2023-04-06T04:59:29;1.60;60.50
68924;DHT22;55961;52.156;20.942;2023-04-06T05:01:55;1.70;60.50
68924;DHT22;55961;52.156;20.942;2023-04-06T05:04:22;1.70;60.40
68924;DHT22;55961;52.156;20.942;2023-04-06T05:06:48;1.70;60.50
68924;DHT22;55961;52.156;20.942;2023-04-06T05:09:14;1.70;60.90
68924;DHT22;55961;52.156;20.942;2023-04-06T05:11:40;1.70;60.60
68924;DHT22;55961;52.156;20.942;2023-04-06T05:14:06;1.80;60.50
68924;DHT22;55961;52.156;20.942;2023-04-06T05:16:33;1.80;60.20
68924;DHT22;55961;52.156;20.942;2023-04-06T05:18:59;1.80;60.00
68924;DHT22;55961;52.156;20.942;2023-04-06T05:21:26;1.80;60.30
68924;DHT22;55961;52.156;20.942;2023-04-06T05:23:53;1.90;59.90
68924;DHT22;55961;52.156;20.942;2023-04-06T05:26:19;1.90;60.10
68924;DHT22;55961;52.156;20.942;2023-04-06T05:28:45;1.90;59.90
68924;DHT22;55961;52.156;20.942;2023-04-06T05:31:11;1.90;59.60
68924;DHT22;55961;52.156;20.942;2023-04-06T05:33:37;1.90;59.50
68924;DHT22;55961;52.156;20.942;2023-04-06T05:36:04;1.90;59.80
68924;DHT22;55961;52.156;20.942;2023-04-06T05:38:31;2.00;59.80
68924;DHT22;55961;52.156;20.942;2023-04-06T05:40:59;1.90;59.70
68924;DHT22;55961;52.156;20.942;2023-04-06T05:43:24;2.00;59.70
68924;DHT22;55961;52.156;20.942;2023-04-06T05:45:51;2.00;59.50
68924;DHT22;55961;52.156;20.942;2023-04-06T05:48:16;2.00;59.30
68924;DHT22;55961;52.156;20.942;2023-04-06T05:50:42;2.10;59.40
68924;DHT22;55961;52.156;20.942;2023-04-06T05:53:08;2.10;59.40
68924;DHT22;55961;52.156;20.942;2023-04-06T05:55:34;2.20;59.00
68924;DHT22;55961;52.156;20.942;2023-04-06T05:58:00;2.20;58.60
68924;DHT22;55961;52.156;20.942;2023-04-06T06:00:26;2.30;58.60
68924;DHT22;55961;52.156;20.942;2023-04-06T06:02:52;2.30;58.90
68924;DHT22;55961;52.156;20.942;2023-04-06T06:05:18;2.40;59.10
68924;DHT22;55961;52.156;20.942;2023-04-06T06:07:44;2.50;58.90
68924;DHT22;55961;52.156;20.942;2023-04-06T06:10:10;2.50;59.10
68924;DHT22;55961;52.156;20.942;2023-04-06T06:12:36;2.60;58.70
68924;DHT22;55961;52.156;20.942;2023-04-06T06:15:03;2.70;58.40
68924;DHT22;55961;52.156;20.942;2023-04-06T06:17:29;2.70;57.90
68924;DHT22;55961;52.156;20.942;2023-04-06T06:19:55;2.80;57.10
68924;DHT22;55961;52.156;20.942;2023-04-06T06:22:20;2.90;57.40
68924;DHT22;55961;52.156;20.942;2023-04-06T06:24:47;2.90;56.60
68924;DHT22;55961;52.156;20.942;2023-04-06T06:27:12;2.90;56.40
68924;DHT22;55961;52.156;20.942;2023-04-06T06:29:39;3.00;56.60
68924;DHT22;55961;52.156;20.942;2023-04-06T06:32:04;3.10;56.50
68924;DHT22;55961;52.156;20.942;2023-04-06T06:34:31;3.10;56.10
68924;DHT22;55961;52.156;20.942;2023-04-06T06:36:56;3.20;56.10
68924;DHT22;55961;52.156;20.942;2023-04-06T06:39:23;3.20;56.00
68924;DHT22;55961;52.156;20.942;2023-04-06T06:41:48;3.30;56.00
68924;DHT22;55961;52.156;20.942;2023-04-06T06:44:15;3.30;56.00
68924;DHT22;55961;52.156;20.942;2023-04-06T06:46:42;3.40;55.90
68924;DHT22;55961;52.156;20.942;2023-04-06T06:49:08;3.40;55.70
68924;DHT22;55961;52.156;20.942;2023-04-06T06:51:34;3.40;55.20
68924;DHT22;55961;52.156;20.942;2023-04-06T06:54:00;3.50;55.60
68924;DHT22;55961;52.156;20.942;2023-04-06T06:56:26;3.50;55.80
68924;DHT22;55961;52.156;20.942;2023-04-06T06:58:53;3.50;55.40
68924;DHT22;55961;52.156;20.942;2023-04-06T07:01:20;3.60;55.20
68924;DHT22;55961;52.156;20.942;2023-04-06T07:03:46;3.60;54.80
68924;DHT22;55961;52.156;20.942;2023-04-06T07:06:12;3.60;54.50
68924;DHT22;55961;52.156;20.942;2023-04-06T07:08:38;3.70;55.00
68924;DHT22;55961;52.156;20.942;2023-04-06T07:11:04;3.70;55.20
68924;DHT22;55961;52.156;20.942;2023-04-06T07:13:30;3.80;55.30
68924;DHT22;55961;52.156;20.942;2023-04-06T07:15:56;3.90;55.50
68924;DHT22;55961;52.156;20.942;2023-04-06T07:18:24;3.90;54.80
68924;DHT22;55961;52.156;20.942;2023-04-06T07:20:50;3.90;54.70
68924;DHT22;55961;52.156;20.942;2023-04-06T07:23:16;4.00;54.90
68924;DHT22;55961;52.156;20.942;2023-04-06T07:25:42;4.00;55.30
68924;DHT22;55961;52.156;20.942;2023-04-06T07:28:08;4.10;55.20
68924;DHT22;55961;52.156;20.942;2023-04-06T07:30:34;4.10;55.50
68924;DHT22;55961;52.156;20.942;2023-04-06T07:33:00;4.20;55.80
68924;DHT22;55961;52.156;20.942;2023-04-06T07:35:27;4.30;55.30
68924;DHT22;55961;52.156;20.942;2023-04-06T07:37:54;4.40;54.80
68924;DHT22;55961;52.156;20.942;2023-04-06T07:40:20;4.40;54.40
68924;DHT22;55961;52.156;20.942;2023-04-06T07:42:46;4.50;53.80
68924;DHT22;55961;52.156;20.942;2023-04-06T07:45:12;4.50;53.80
68924;DHT22;55961;52.156;20.942;2023-04-06T07:47:38;4.50;54.30
68924;DHT22;55961;52.156;20.942;2023-04-06T07:50:05;4.60;53.60
68924;DHT22;55961;52.156;20.942;2023-04-06T07:52:31;4.60;53.40
68924;DHT22;55961;52.156;20.942;2023-04-06T07:54:58;4.60;53.70
68924;DHT22;55961;52.156;20.942;2023-04-06T07:57:24;4.60;53.60
68924;DHT22;55961;52.156;20.942;2023-04-06T07:59:51;4.60;53.60
68924;DHT22;55961;52.156;20.942;2023-04-06T08:02:17;4.60;53.60
68924;DHT22;55961;52.156;20.942;2023-04-06T08:04:43;4.60;54.00
68924;DHT22;55961;52.156;20.942;2023-04-06T08:07:10;4.60;54.40
68924;DHT22;55961;52.156;20.942;2023-04-06T08:09:35;4.60;55.10
68924;DHT22;55961;52.156;20.942;2023-04-06T08:12:02;4.60;55.80
68924;DHT22;55961;52.156;20.942;2023-04-06T08:14:27;4.60;55.60
68924;DHT22;55961;52.156;20.942;2023-04-06T08:16:54;4.60;55.80
68924;DHT22;55961;52.156;20.942;2023-04-06T08:19:20;4.60;56.00
68924;DHT22;55961;52.156;20.942;2023-04-06T08:21:46;4.70;55.80
68924;DHT22;55961;52.156;20.942;2023-04-06T08:24:13;4.70;55.70
68924;DHT22;55961;52.156;20.942;2023-04-06T08:26:40;4.80;55.70
68924;DHT22;55961;52.156;20.942;2023-04-06T08:29:06;4.80;55.80
68924;DHT22;55961;52.156;20.942;2023-04-06T08:31:35;4.80;56.10
68924;DHT22;55961;52.156;20.942;2023-04-06T08:34:03;4.90;56.50
68924;DHT22;55961;52.156;20.942;2023-04-06T08:36:30;4.90;56.50
68924;DHT22;55961;52.156;20.942;2023-04-06T08:38:56;4.90;56.20
68924;DHT22;55961;52.156;20.942;2023-04-06T08:41:22;5.00;56.40
68924;DHT22;55961;52.156;20.942;2023-04-06T08:43:58;5.00;55.70
68924;DHT22;55961;52.156;20.942;2023-04-06T08:46:25;5.10;55.40
68924;DHT22;55961;52.156;20.942;2023-04-06T08:48:58;5.10;56.40
68924;DHT22;55961;52.156;20.942;2023-04-06T08:51:25;5.10;57.00
68924;DHT22;55961;52.156;20.942;2023-04-06T08:53:56;5.10;57.50
68924;DHT22;55961;52.156;20.942;2023-04-06T08:56:23;5.10;57.30
68924;DHT22;55961;52.156;20.942;2023-04-06T08:58:49;5.10;57.90
68924;DHT22;55961;52.156;20.942;2023-04-06T09:01:20;5.10;58.30
68924;DHT22;55961;52.156;20.942;2023-04-06T09:03:49;5.00;58.20
68924;DHT22;55961;52.156;20.942;2023-04-06T09:06:16;5.00;58.60
68924;DHT22;55961;52.156;20.942;2023-04-06T09:08:42;5.00;58.70
68924;DHT22;55961;52.156;20.942;2023-04-06T09:11:08;5.00;58.70
68924;DHT22;55961;52.156;20.942;2023-04-06T09:13:53;5.00;59.30
68924;DHT22;55961;52.156;20.942;2023-04-06T09:16:20;5.00;59.40
68924;DHT22;55961;52.156;20.942;2023-04-06T09:18:47;5.00;59.20
68924;DHT22;55961;52.156;20.942;2023-04-06T09:21:17;5.00;59.20
68924;DHT22;55961;52.156;20.942;2023-04-06T09:23:43;4.90;59.90
68924;DHT22;55961;52.156;20.942;2023-04-06T09:26:14;4.90;59.70
68924;DHT22;55961;52.156;20.942;2023-04-06T09:28:43;4.90;60.00
68924;DHT22;55961;52.156;20.942;2023-04-06T09:31:15;4.80;60.60
68924;DHT22;55961;52.156;20.942;2023-04-06T09:33:44;4.80;61.50
68924;DHT22;55961;52.156;20.942;2023-04-06T09:36:11;4.80;60.90
68924;DHT22;55961;52.156;20.942;2023-04-06T09:38:38;4.80;60.70
68924;DHT22;55961;52.156;20.942;2023-04-06T09:41:04;4.80;59.70
68924;DHT22;55961;52.156;20.942;2023-04-06T09:43:31;4.70;59.70
68924;DHT22;55961;52.156;20.942;2023-04-06T09:45:58;4.70;60.30
68924;DHT22;55961;52.156;20.942;2023-04-06T09:48:26;4.60;61.30
68924;DHT22;55961;52.156;20.942;2023-04-06T09:50:59;4.60;62.60
68924;DHT22;55961;52.156;20.942;2023-04-06T09:53:30;4.60;63.70
68924;DHT22;55961;52.156;20.942;2023-04-06T09:55:59;4.50;65.10
68924;DHT22;55961;52.156;20.942;2023-04-06T09:58:33;4.50;65.20
68924;DHT22;55961;52.156;20.942;2023-04-06T10:01:10;4.40;65.80
68924;DHT22;55961;52.156;20.942;2023-04-06T10:04:02;4.40;67.00
68924;DHT22;55961;52.156;20.942;2023-04-06T10:06:32;4.30;67.20
68924;DHT22;55961;52.156;20.942;2023-04-06T10:09:02;4.20;67.60
68924;DHT22;55961;52.156;20.942;2023-04-06T10:11:31;4.20;67.50
68924;DHT22;55961;52.156;20.942;2023-04-06T10:13:57;4.10;67.10
68924;DHT22;55961;52.156;20.942;2023-04-06T10:16:23;4.00;67.70
68924;DHT22;55961;52.156;20.942;2023-04-06T10:18:56;4.00;67.80
68924;DHT22;55961;52.156;20.942;2023-04-06T10:21:26;3.90;68.40
68924;DHT22;55961;52.156;20.942;2023-04-06T10:24:00;3.90;68.70
68924;DHT22;55961;52.156;20.942;2023-04-06T10:26:27;3.90;69.10
68924;DHT22;55961;52.156;20.942;2023-04-06T10:28:54;3.80;69.70
68924;DHT22;55961;52.156;20.942;2023-04-06T10:31:27;3.80;70.00
68924;DHT22;55961;52.156;20.942;2023-04-06T10:34:02;3.80;70.60
68924;DHT22;55961;52.156;20.942;2023-04-06T10:36:32;3.70;71.50
68924;DHT22;55961;52.156;20.942;2023-04-06T10:39:01;3.70;72.00
68924;DHT22;55961;52.156;20.942;2023-04-06T10:41:44;3.70;72.20
68924;DHT22;55961;52.156;20.942;2023-04-06T10:44:22;3.60;72.70
68924;DHT22;55961;52.156;20.942;2023-04-06T10:46:59;3.60;73.10
68924;DHT22;55961;52.156;20.942;2023-04-06T10:49:28;3.50;72.80
68924;DHT22;55961;52.156;20.942;2023-04-06T10:51:56;3.50;73.10
68924;DHT22;55961;52.156;20.942;2023-04-06T10:54:24;3.50;73.90
68924;DHT22;55961;52.156;20.942;2023-04-06T10:56:50;3.40;73.70
68924;DHT22;55961;52.156;20.942;2023-04-06T10:59:20;3.40;74.20
68924;DHT22;55961;52.156;20.942;2023-04-06T11:01:47;3.40;74.80
68924;DHT22;55961;52.156;20.942;2023-04-06T11:04:16;3.40;74.70
68924;DHT22;55961;52.156;20.942;2023-04-06T11:06:46;3.30;75.10
68924;DHT22;55961;52.156;20.942;2023-04-06T11:09:26;3.30;75.80
68924;DHT22;55961;52.156;20.942;2023-04-06T11:11:53;3.30;76.50
68924;DHT22;55961;52.156;20.942;2023-04-06T11:14:19;3.30;77.10
68924;DHT22;55961;52.156;20.942;2023-04-06T11:16:47;3.40;76.60
68924;DHT22;55961;52.156;20.942;2023-04-06T11:19:16;3.40;76.10
68924;DHT22;55961;52.156;20.942;2023-04-06T11:21:44;3.40;76.60
68924;DHT22;55961;52.156;20.942;2023-04-06T11:24:17;3.30;76.40
68924;DHT22;55961;52.156;20.942;2023-04-06T11:26:48;3.40;76.40
68924;DHT22;55961;52.156;20.942;2023-04-06T11:29:19;3.40;76.80
68924;DHT22;55961;52.156;20.942;2023-04-06T11:31:47;3.40;76.20
68924;DHT22;55961;52.156;20.942;2023-04-06T11:34:17;3.40;76.10
68924;DHT22;55961;52.156;20.942;2023-04-06T11:36:45;3.40;76.80
68924;DHT22;55961;52.156;20.942;2023-04-06T11:39:12;3.40;77.50
68924;DHT22;55961;52.156;20.942;2023-04-06T11:41:38;3.40;77.40
68924;DHT22;55961;52.156;20.942;2023-04-06T11:44:05;3.40;77.60
68924;DHT22;55961;52.156;20.942;2023-04-06T11:46:31;3.40;77.20
68924;DHT22;55961;52.156;20.942;2023-04-06T11:49:02;3.40;77.60
68924;DHT22;55961;52.156;20.942;2023-04-06T11:51:28;3.40;77.70
68924;DHT22;55961;52.156;20.942;2023-04-06T11:53:54;3.40;77.60
68924;DHT22;55961;52.156;20.942;2023-04-06T11:56:28;3.40;78.00
68924;DHT22;55961;52.156;20.942;2023-04-06T11:58:55;3.40;78.10
68924;DHT22;55961;52.156;20.942;2023-04-06T12:01:22;3.40;77.30
68924;DHT22;55961;52.156;20.942;2023-04-06T12:03:49;3.40;77.60
68924;DHT22;55961;52.156;20.942;2023-04-06T12:06:16;3.40;77.80
68924;DHT22;55961;52.156;20.942;2023-04-06T12:08:42;3.40;78.20
68924;DHT22;55961;52.156;20.942;2023-04-06T12:11:08;3.40;78.20
68924;DHT22;55961;52.156;20.942;2023-04-06T12:13:34;3.30;78.40
68924;DHT22;55961;52.156;20.942;2023-04-06T12:16:00;3.30;78.10
68924;DHT22;55961;52.156;20.942;2023-04-06T12:18:26;3.40;78.10
68924;DHT22;55961;52.156;20.942;2023-04-06T12:20:52;3.40;78.10
68924;DHT22;55961;52.156;20.942;2023-04-06T12:23:19;3.40;77.60
68924;DHT22;55961;52.156;20.942;2023-04-06T12:25:45;3.40;77.50
68924;DHT22;55961;52.156;20.942;2023-04-06T12:28:11;3.40;77.80
68924;DHT22;55961;52.156;20.942;2023-04-06T12:30:37;3.40;78.00
68924;DHT22;55961;52.156;20.942;2023-04-06T12:33:03;3.40;77.20
68924;DHT22;55961;52.156;20.942;2023-04-06T12:35:33;3.40;75.90
68924;DHT22;55961;52.156;20.942;2023-04-06T12:37:59;3.40;75.80
68924;DHT22;55961;52.156;20.942;2023-04-06T12:40:25;3.40;76.60
68924;DHT22;55961;52.156;20.942;2023-04-06T12:42:51;3.50;76.50
68924;DHT22;55961;52.156;20.942;2023-04-06T12:45:17;3.50;76.70
68924;DHT22;55961;52.156;20.942;2023-04-06T12:47:43;3.50;76.10
68924;DHT22;55961;52.156;20.942;2023-04-06T12:50:09;3.50;76.60
68924;DHT22;55961;52.156;20.942;2023-04-06T12:52:35;3.50;76.90
68924;DHT22;55961;52.156;20.942;2023-04-06T12:55:03;3.50;77.20
68924;DHT22;55961;52.156;20.942;2023-04-06T12:57:28;3.50;76.90
68924;DHT22;55961;52.156;20.942;2023-04-06T12:59:55;3.60;76.90
68924;DHT22;55961;52.156;20.942;2023-04-06T13:02:22;3.60;77.00
68924;DHT22;55961;52.156;20.942;2023-04-06T13:04:51;3.60;76.60
68924;DHT22;55961;52.156;20.942;2023-04-06T13:07:17;3.60;77.10
68924;DHT22;55961;52.156;20.942;2023-04-06T13:09:44;3.60;77.00
68924;DHT22;55961;52.156;20.942;2023-04-06T13:12:10;3.60;77.00
68924;DHT22;55961;52.156;20.942;2023-04-06T13:14:36;3.60;76.90
68924;DHT22;55961;52.156;20.942;2023-04-06T13:17:02;3.70;76.50
68924;DHT22;55961;52.156;20.942;2023-04-06T13:19:28;3.70;76.60
68924;DHT22;55961;52.156;20.942;2023-04-06T13:21:54;3.70;77.20
68924;DHT22;55961;52.156;20.942;2023-04-06T13:24:20;3.70;77.00
68924;DHT22;55961;52.156;20.942;2023-04-06T13:26:47;3.70;77.10
68924;DHT22;55961;52.156;20.942;2023-04-06T13:29:13;3.70;77.00
68924;DHT22;55961;52.156;20.942;2023-04-06T13:31:39;3.70;77.20
68924;DHT22;55961;52.156;20.942;2023-04-06T13:34:05;3.70;77.30
68924;DHT22;55961;52.156;20.942;2023-04-06T13:36:31;3.70;77.60
68924;DHT22;55961;52.156;20.942;2023-04-06T13:38:58;3.70;78.30
68924;DHT22;55961;52.156;20.942;2023-04-06T13:41:25;3.70;78.20
68924;DHT22;55961;52.156;20.942;2023-04-06T13:43:52;3.70;78.30
68924;DHT22;55961;52.156;20.942;2023-04-06T13:46:18;3.70;78.40
68924;DHT22;55961;52.156;20.942;2023-04-06T13:48:44;3.70;79.40
68924;DHT22;55961;52.156;20.942;2023-04-06T13:51:14;3.70;78.90
68924;DHT22;55961;52.156;20.942;2023-04-06T13:53:41;3.70;78.60
68924;DHT22;55961;52.156;20.942;2023-04-06T13:56:07;3.60;78.40
68924;DHT22;55961;52.156;20.942;2023-04-06T13:58:33;3.60;78.90
68924;DHT22;55961;52.156;20.942;2023-04-06T14:01:08;3.70;78.40
68924;DHT22;55961;52.156;20.942;2023-04-06T14:03:36;3.60;78.90
68924;DHT22;55961;52.156;20.942;2023-04-06T14:06:10;3.60;79.30
68924;DHT22;55961;52.156;20.942;2023-04-06T14:08:36;3.60;79.80
68924;DHT22;55961;52.156;20.942;2023-04-06T14:11:02;3.60;79.50
68924;DHT22;55961;52.156;20.942;2023-04-06T14:13:28;3.60;78.80
68924;DHT22;55961;52.156;20.942;2023-04-06T14:15:54;3.60;78.50
68924;DHT22;55961;52.156;20.942;2023-04-06T14:18:21;3.60;78.90
68924;DHT22;55961;52.156;20.942;2023-04-06T14:20:57;3.60;79.30
68924;DHT22;55961;52.156;20.942;2023-04-06T14:23:24;3.60;79.50
68924;DHT22;55961;52.156;20.942;2023-04-06T14:26:08;3.50;80.00
68924;DHT22;55961;52.156;20.942;2023-04-06T14:28:35;3.50;80.40
68924;DHT22;55961;52.156;20.942;2023-04-06T14:31:02;3.50;80.60
68924;DHT22;55961;52.156;20.942;2023-04-06T14:33:31;3.50;81.30
68924;DHT22;55961;52.156;20.942;2023-04-06T14:35:56;3.50;81.50
68924;DHT22;55961;52.156;20.942;2023-04-06T14:38:22;3.50;81.00
68924;DHT22;55961;52.156;20.942;2023-04-06T14:40:48;3.60;80.80
68924;DHT22;55961;52.156;20.942;2023-04-06T14:43:14;3.50;81.30
68924;DHT22;55961;52.156;20.942;2023-04-06T14:45:40;3.50;81.10
68924;DHT22;55961;52.156;20.942;2023-04-06T14:48:06;3.50;81.20
68924;DHT22;55961;52.156;20.942;2023-04-06T14:50:32;3.60;81.20
68924;DHT22;55961;52.156;20.942;2023-04-06T14:52:59;3.60;81.40
68924;DHT22;55961;52.156;20.942;2023-04-06T14:55:26;3.60;81.80
68924;DHT22;55961;52.156;20.942;2023-04-06T14:57:52;3.60;82.10
68924;DHT22;55961;52.156;20.942;2023-04-06T15:00:18;3.60;81.80
68924;DHT22;55961;52.156;20.942;2023-04-06T15:02:44;3.60;81.90
68924;DHT22;55961;52.156;20.942;2023-04-06T15:05:10;3.60;82.00
68924;DHT22;55961;52.156;20.942;2023-04-06T15:07:37;3.70;81.70
68924;DHT22;55961;52.156;20.942;2023-04-06T15:10:04;3.60;81.50
68924;DHT22;55961;52.156;20.942;2023-04-06T15:12:30;3.70;81.50
68924;DHT22;55961;52.156;20.942;2023-04-06T15:14:57;3.70;81.50
68924;DHT22;55961;52.156;20.942;2023-04-06T15:17:24;3.70;81.70
68924;DHT22;55961;52.156;20.942;2023-04-06T15:19:51;3.70;81.30
68924;DHT22;55961;52.156;20.942;2023-04-06T15:22:19;3.70;81.50
68924;DHT22;55961;52.156;20.942;2023-04-06T15:24:44;3.70;81.80
68924;DHT22;55961;52.156;20.942;2023-04-06T15:27:10;3.70;81.60
68924;DHT22;55961;52.156;20.942;2023-04-06T15:29:36;3.70;81.70